createdAt,value
2022-10-11T00:01:26.103Z,99727.71
2022-10-11T00:04:13.984Z,99728.08
2022-10-11T00:07:01.800Z,99730.19
2022-10-11T00:09:49.538Z,99723.16
2022-10-11T00:12:37.405Z,99734.81
2022-10-11T00:15:25.850Z,99734.30
2022-10-11T00:18:13.819Z,99731.54
2022-10-11T00:21:08.775Z,99728.90
2022-10-11T00:23:56.977Z,99730.15
2022-10-11T00:26:46.937Z,99728.29
2022-10-11T00:29:35.469Z,99726.54
2022-10-11T00:32:23.606Z,99729.80
2022-10-11T00:35:11.603Z,99731.88
2022-10-11T00:37:59.849Z,99727.92
2022-10-11T00:40:47.840Z,99724.70
2022-10-11T00:43:36.697Z,99727.02
2022-10-11T00:46:29.700Z,99728.83
2022-10-11T00:49:49.313Z,99733.86
2022-10-11T00:52:50.245Z,99733.66
2022-10-11T00:55:48.536Z,99735.40
2022-10-11T00:58:38.642Z,99735.98
2022-10-11T01:01:27.348Z,99735.55
2022-10-11T01:04:15.534Z,99733.98
2022-10-11T01:07:03.855Z,99735.56
2022-10-11T01:09:51.966Z,99739.55
2022-10-11T01:13:15.945Z,99738.67
2022-10-11T01:16:32.221Z,99743.02
2022-10-11T01:19:44.567Z,99745.59
2022-10-11T01:23:16.947Z,99747.08
2022-10-11T01:27:05.643Z,99748.67
2022-10-11T01:30:19.266Z,99745.52
2022-10-11T01:33:45.077Z,99742.39
2022-10-11T01:36:50.026Z,99738.70
2022-10-11T01:39:47.776Z,99741.82
2022-10-11T01:42:40.315Z,99741.30
2022-10-11T01:45:28.320Z,99738.07
2022-10-11T01:48:16.313Z,99740.08
2022-10-11T01:51:04.552Z,99738.95
2022-10-11T01:54:20.965Z,99736.61
2022-10-11T01:57:41.118Z,99741.38
2022-10-11T02:01:08.512Z,99746.45
2022-10-11T02:04:14.150Z,99747.66
2022-10-11T02:07:20.747Z,99750.50
2022-10-11T02:10:36.991Z,99751.91
2022-10-11T02:13:54.633Z,99752.05
2022-10-11T02:16:48.718Z,99756.98
2022-10-11T02:19:44.528Z,99754.84
2022-10-11T02:22:39.412Z,99759.56
2022-10-11T02:25:32.617Z,99763.09
2022-10-11T02:28:30.496Z,99766.39
2022-10-11T02:31:20.847Z,99769.27
2022-10-11T02:34:14.253Z,99767.59
2022-10-11T02:37:35.460Z,99767.37
2022-10-11T02:40:45.065Z,99765.59
2022-10-11T02:43:40.014Z,99770.47
2022-10-11T02:46:30.658Z,99779.02
2022-10-11T02:49:20.032Z,99783.54
2022-10-11T02:52:07.874Z,99791.45
2022-10-11T02:54:55.672Z,99789.66
2022-10-11T02:57:43.795Z,99795.79
2022-10-11T03:00:31.868Z,99797.05
2022-10-11T03:03:20.189Z,99799.14
2022-10-11T03:06:09.463Z,99801.12
2022-10-11T03:08:57.132Z,99802.64
2022-10-11T03:11:45.328Z,99805.59
2022-10-11T03:14:33.477Z,99804.11
2022-10-11T03:17:36.043Z,99808.86
2022-10-11T03:20:25.270Z,99811.52
2022-10-11T03:23:13.419Z,99811.46
2022-10-11T03:26:01.619Z,99816.48
2022-10-11T03:28:50.119Z,99819.97
2022-10-11T03:31:38.098Z,99822.04
2022-10-11T03:34:26.087Z,99823.48
2022-10-11T03:37:14.369Z,99820.55
2022-10-11T03:40:03.924Z,99818.33
2022-10-11T03:42:51.744Z,99823.69
2022-10-11T03:45:42.482Z,99829.63
2022-10-11T03:48:30.298Z,99835.14
2022-10-11T03:51:18.327Z,99839.60
2022-10-11T03:54:06.579Z,99841.77
2022-10-11T03:56:54.419Z,99844.01
2022-10-11T03:59:42.704Z,99852.98
2022-10-11T04:02:31.673Z,99855.99
2022-10-11T04:05:21.681Z,99859.84
2022-10-11T04:08:12.124Z,99865.49
2022-10-11T04:11:00.784Z,99865.67
2022-10-11T04:13:49.003Z,99872.02
2022-10-11T04:16:38.870Z,99876.31
2022-10-11T04:19:26.931Z,99878.97
2022-10-11T04:22:14.757Z,99883.03
2022-10-11T04:25:02.791Z,99886.11
2022-10-11T04:27:51.123Z,99892.76
2022-10-11T04:30:38.898Z,99893.85
2022-10-11T04:33:27.219Z,99903.41
2022-10-11T04:36:15.426Z,99910.37
2022-10-11T04:39:04.137Z,99914.50
2022-10-11T04:41:52.485Z,99913.90
2022-10-11T04:44:40.709Z,99923.89
2022-10-11T04:47:28.737Z,99929.14
2022-10-11T04:50:16.756Z,99928.08
2022-10-11T04:53:04.768Z,99929.15
2022-10-11T04:56:07.823Z,99934.71
2022-10-11T04:58:56.595Z,99941.34
2022-10-11T05:01:44.955Z,99946.30
2022-10-11T05:04:33.087Z,99951.02
2022-10-11T05:07:21.150Z,99960.72
2022-10-11T05:10:10.208Z,99968.96
2022-10-11T05:12:57.981Z,99975.82
2022-10-11T05:15:45.997Z,99980.85
2022-10-11T05:18:34.013Z,99991.97
2022-10-11T05:21:28.979Z,99996.08
2022-10-11T05:24:16.487Z,99998.55
2022-10-11T05:27:04.524Z,99997.05
2022-10-11T05:29:52.179Z,100000.44
2022-10-11T05:32:39.873Z,100003.84
2022-10-11T05:35:28.064Z,100003.40
2022-10-11T05:38:16.776Z,100012.60
2022-10-11T05:41:05.904Z,100014.42
2022-10-11T05:43:53.881Z,100021.35
2022-10-11T05:46:44.676Z,100026.95
2022-10-11T05:49:32.617Z,100031.63
2022-10-11T05:52:21.691Z,100037.80
2022-10-11T05:55:09.797Z,100041.20
2022-10-11T05:57:58.109Z,100048.50
2022-10-11T06:00:48.403Z,100053.92
2022-10-11T06:03:36.543Z,100055.77
2022-10-11T06:06:24.626Z,100059.81
2022-10-11T06:09:12.979Z,100064.94
2022-10-11T06:12:01.154Z,100067.22
2022-10-11T06:14:49.001Z,100073.66
2022-10-11T06:17:37.850Z,100079.61
2022-10-11T06:20:27.146Z,100078.84
2022-10-11T06:23:14.870Z,100091.46
2022-10-11T06:26:07.984Z,100091.05
2022-10-11T06:28:57.398Z,100092.48
2022-10-11T06:31:45.931Z,100101.35
2022-10-11T06:34:33.636Z,100102.24
2022-10-11T06:37:21.388Z,100110.44
2022-10-11T06:40:10.427Z,100114.11
2022-10-11T06:42:58.046Z,100114.98
2022-10-11T06:45:46.257Z,100123.98
2022-10-11T06:48:34.869Z,100125.27
2022-10-11T06:51:23.688Z,100124.14
2022-10-11T06:54:11.571Z,100124.76
2022-10-11T06:57:00.151Z,100120.48
2022-10-11T06:59:48.127Z,100122.73
2022-10-11T07:02:35.915Z,100123.19
2022-10-11T07:05:23.589Z,100119.70
2022-10-11T07:08:11.981Z,100121.79
2022-10-11T07:11:12.787Z,100121.07
2022-10-11T07:14:07.618Z,100128.55
2022-10-11T07:16:55.957Z,100136.38
2022-10-11T07:19:43.775Z,100139.39
2022-10-11T07:22:31.770Z,100140.91
2022-10-11T07:25:19.839Z,100145.11
2022-10-11T07:28:07.852Z,100144.56
2022-10-11T07:30:56.206Z,100152.17
2022-10-11T07:33:44.046Z,100148.59
2022-10-11T07:36:32.077Z,100156.12
2022-10-11T07:39:19.956Z,100150.70
2022-10-11T07:42:10.049Z,100159.27
2022-10-11T07:44:58.021Z,100158.71
2022-10-11T07:47:46.797Z,100161.58
2022-10-11T07:50:35.570Z,100167.20
2022-10-11T07:53:23.589Z,100169.74
2022-10-11T07:56:14.247Z,100175.39
2022-10-11T07:59:06.453Z,100169.93
2022-10-11T08:01:54.259Z,100173.99
2022-10-11T08:04:42.237Z,100175.40
2022-10-11T08:07:33.305Z,100176.30
2022-10-11T08:10:40.487Z,100179.36
2022-10-11T08:13:28.969Z,100182.27
2022-10-11T08:16:17.167Z,100186.86
2022-10-11T08:19:06.711Z,100185.08
2022-10-11T08:21:54.455Z,100191.73
2022-10-11T08:24:42.276Z,100190.45
2022-10-11T08:27:30.111Z,100195.23
2022-10-11T08:30:18.851Z,100194.85
2022-10-11T08:33:08.696Z,100189.98
2022-10-11T08:35:57.487Z,100191.32
2022-10-11T08:38:45.581Z,100195.80
2022-10-11T08:41:58.692Z,100197.85
2022-10-11T08:45:16.951Z,100208.55
2022-10-11T08:48:19.228Z,100210.77
2022-10-11T08:51:32.367Z,100208.61
2022-10-11T08:54:39.293Z,100211.73
2022-10-11T08:57:32.171Z,100217.05
2022-10-11T09:00:21.809Z,100215.98
2022-10-11T09:03:37.239Z,100220.98
2022-10-11T09:07:04.713Z,100226.54
2022-10-11T09:10:20.768Z,100241.73
2022-10-11T09:13:31.651Z,100256.72
2022-10-11T09:16:39.434Z,100263.64
2022-10-11T09:19:58.339Z,100265.98
2022-10-11T09:22:57.941Z,100266.34
2022-10-11T09:26:11.689Z,100268.49
2022-10-11T09:29:46.315Z,100260.87
2022-10-11T09:32:46.011Z,100259.60
2022-10-11T09:35:41.254Z,100263.69
2022-10-11T09:38:56.708Z,100261.64
2022-10-11T09:41:59.056Z,100264.24
2022-10-11T09:44:51.398Z,100266.14
2022-10-11T09:47:39.332Z,100267.38
2022-10-11T09:50:30.032Z,100266.70
2022-10-11T09:53:17.863Z,100271.41
2022-10-11T09:56:06.834Z,100267.84
2022-10-11T09:59:34.709Z,100272.38
2022-10-11T10:02:24.607Z,100272.16
2022-10-11T10:05:26.568Z,100272.34
2022-10-11T10:08:25.422Z,100273.65
2022-10-11T10:11:14.861Z,100285.04
2022-10-11T10:14:02.846Z,100282.23
2022-10-11T10:17:01.634Z,100286.80
2022-10-11T10:19:55.652Z,100291.67
2022-10-11T10:22:47.378Z,100284.77
2022-10-11T10:25:43.289Z,100288.02
2022-10-11T10:28:31.466Z,100302.55
2022-10-11T10:31:49.580Z,100303.38
2022-10-11T10:35:19.367Z,100307.23
2022-10-11T10:38:52.004Z,100316.26
2022-10-11T10:41:40.702Z,100314.48
2022-10-11T10:44:28.821Z,100316.42
2022-10-11T10:47:57.512Z,100327.41
2022-10-11T10:51:10.578Z,100332.13
2022-10-11T10:54:42.846Z,100336.66
2022-10-11T10:57:48.413Z,100332.65
2022-10-11T11:01:00.918Z,100329.73
2022-10-11T11:03:55.024Z,100338.40
2022-10-11T11:07:19.796Z,100341.54
2022-10-11T11:10:21.172Z,100346.22
2022-10-11T11:13:25.661Z,100346.63
2022-10-11T11:16:34.137Z,100349.15
2022-10-11T11:20:02.762Z,100356.39
2022-10-11T11:23:33.206Z,100359.05
2022-10-11T11:27:01.324Z,100364.80
2022-10-11T11:30:01.222Z,100373.52
2022-10-11T11:33:17.835Z,100378.75
2022-10-11T11:36:43.598Z,100373.73
2022-10-11T11:39:56.441Z,100376.55
2022-10-11T11:43:27.122Z,100371.91
2022-10-11T11:46:24.517Z,100370.11
2022-10-11T11:49:25.603Z,100370.33
2022-10-11T11:53:08.181Z,100379.31
2022-10-11T11:56:25.894Z,100368.80
2022-10-11T11:59:25.127Z,100362.30
2022-10-11T12:02:49.115Z,100362.45
2022-10-11T12:05:37.390Z,100372.77
2022-10-11T12:08:31.297Z,100375.86
2022-10-11T12:11:38.299Z,100374.86
2022-10-11T12:14:28.975Z,100373.83
2022-10-11T12:17:23.069Z,100374.64
2022-10-11T12:20:25.664Z,100372.21
2022-10-11T12:23:28.442Z,100376.55
2022-10-11T12:26:28.139Z,100379.51
2022-10-11T12:29:18.794Z,100380.88
2022-10-11T12:32:06.819Z,100383.56
2022-10-11T12:35:32.665Z,100391.04
2022-10-11T12:38:29.591Z,100383.59
2022-10-11T12:41:18.392Z,100384.87
2022-10-11T12:44:18.810Z,100385.66
2022-10-11T12:47:36.946Z,100382.25
2022-10-11T12:51:14.506Z,100382.54
2022-10-11T12:54:43.863Z,100382.29
2022-10-11T12:58:08.881Z,100382.95
2022-10-11T13:00:56.531Z,100386.42
2022-10-11T13:04:05.364Z,100391.17
2022-10-11T13:07:06.865Z,100394.77
2022-10-11T13:09:55.475Z,100392.65
2022-10-11T13:12:47.249Z,100398.80
2022-10-11T13:15:35.443Z,100399.81
2022-10-11T13:18:26.464Z,100397.63
2022-10-11T13:21:39.731Z,100414.00
2022-10-11T13:24:39.398Z,100414.30
2022-10-11T13:27:27.990Z,100410.47
2022-10-11T13:30:30.666Z,100424.05
2022-10-11T13:33:32.507Z,100422.58
2022-10-11T13:36:19.844Z,100423.02
2022-10-11T13:39:08.093Z,100421.73
2022-10-11T13:41:57.581Z,100428.66
2022-10-11T13:44:47.200Z,100424.20
2022-10-11T13:47:35.649Z,100424.50
2022-10-11T13:50:33.689Z,100424.10
2022-10-11T13:53:25.571Z,100422.47
2022-10-11T13:56:19.669Z,100421.70
2022-10-11T13:59:07.954Z,100422.50
2022-10-11T14:02:01.453Z,100424.52
2022-10-11T14:04:50.054Z,100430.64
2022-10-11T14:07:39.298Z,100434.75
2022-10-11T14:10:28.443Z,100441.45
2022-10-11T14:13:35.864Z,100444.82
2022-10-11T14:16:23.176Z,100438.91
2022-10-11T14:19:11.533Z,100445.17
2022-10-11T14:21:59.482Z,100448.59
2022-10-11T14:24:48.370Z,100448.64
2022-10-11T14:27:37.446Z,100457.23
2022-10-11T14:30:27.815Z,100455.61
2022-10-11T14:33:15.550Z,100454.75
2022-10-11T14:36:04.468Z,100461.16
2022-10-11T14:38:53.816Z,100464.85
2022-10-11T14:41:42.765Z,100465.96
2022-10-11T14:44:30.480Z,100463.81
2022-10-11T14:47:18.710Z,100465.45
2022-10-11T14:50:29.302Z,100466.17
2022-10-11T14:53:17.739Z,100470.58
2022-10-11T14:56:06.380Z,100473.66
2022-10-11T14:58:54.307Z,100473.45
2022-10-11T15:01:42.808Z,100479.67
2022-10-11T15:04:31.062Z,100482.39
2022-10-11T15:07:18.513Z,100480.27
2022-10-11T15:10:38.836Z,100485.61
2022-10-11T15:13:26.424Z,100494.07
2022-10-11T15:16:19.043Z,100496.23
2022-10-11T15:19:11.165Z,100494.71
2022-10-11T15:21:58.943Z,100501.80
2022-10-11T15:24:51.380Z,100500.20
2022-10-11T15:27:39.817Z,100501.52
2022-10-11T15:30:38.507Z,100502.18
2022-10-11T15:33:28.973Z,100505.97
2022-10-11T15:36:22.786Z,100512.84
2022-10-11T15:39:30.729Z,100519.48
2022-10-11T15:42:18.612Z,100515.34
2022-10-11T15:45:06.630Z,100512.79
2022-10-11T15:47:54.785Z,100513.73
2022-10-11T15:50:43.196Z,100517.41
2022-10-11T15:53:31.518Z,100519.79
2022-10-11T15:56:20.149Z,100518.42
2022-10-11T15:59:11.778Z,100516.27
2022-10-11T16:01:59.588Z,100522.09
2022-10-11T16:04:47.456Z,100529.40
2022-10-11T16:07:35.571Z,100532.25
2022-10-11T16:10:23.300Z,100536.73
2022-10-11T16:13:12.249Z,100543.96
2022-10-11T16:16:07.306Z,100545.26
2022-10-11T16:18:55.615Z,100545.65
2022-10-11T16:21:43.467Z,100551.61
2022-10-11T16:24:31.319Z,100551.23
2022-10-11T16:27:19.993Z,100550.39
2022-10-11T16:30:11.914Z,100555.45
2022-10-11T16:32:59.585Z,100557.36
2022-10-11T16:35:47.057Z,100555.14
2022-10-11T16:38:34.619Z,100558.84
2022-10-11T16:41:22.397Z,100559.42
2022-10-11T16:44:20.149Z,100556.58
2022-10-11T16:47:07.972Z,100557.38
2022-10-11T16:49:55.985Z,100558.59
2022-10-11T16:52:43.819Z,100561.63
2022-10-11T16:55:31.839Z,100564.23
2022-10-11T16:58:19.872Z,100567.65
2022-10-11T17:01:10.351Z,100567.73
2022-10-11T17:03:58.315Z,100572.77
2022-10-11T17:06:46.171Z,100578.02
2022-10-11T17:09:33.792Z,100580.12
2022-10-11T17:12:24.218Z,100584.79
2022-10-11T17:15:12.771Z,100582.84
2022-10-11T17:18:00.567Z,100584.64
2022-10-11T17:20:48.984Z,100587.09
2022-10-11T17:23:36.862Z,100589.30
2022-10-11T17:26:28.294Z,100594.73
2022-10-11T17:29:21.649Z,100598.63
2022-10-11T17:32:19.207Z,100598.39
2022-10-11T17:35:11.685Z,100599.95
2022-10-11T17:38:05.724Z,100599.95
2022-10-11T17:41:14.604Z,100599.33
2022-10-11T17:44:03.336Z,100597.18
2022-10-11T17:46:51.259Z,100598.55
2022-10-11T17:49:38.950Z,100602.35
2022-10-11T17:52:26.846Z,100594.02
2022-10-11T17:55:15.782Z,100600.70
2022-10-11T17:58:07.295Z,100600.77
2022-10-11T18:00:55.252Z,100607.39
2022-10-11T18:03:43.754Z,100604.91
2022-10-11T18:06:39.184Z,100605.48
2022-10-11T18:09:27.324Z,100599.98
2022-10-11T18:12:14.798Z,100594.49
2022-10-11T18:15:02.902Z,100594.41
2022-10-11T18:17:50.977Z,100593.86
2022-10-11T18:20:38.730Z,100597.48
2022-10-11T18:23:29.609Z,100592.73
2022-10-11T18:26:22.223Z,100597.62
2022-10-11T18:29:14.649Z,100599.09
2022-10-11T18:32:27.165Z,100602.84
2022-10-11T18:35:15.212Z,100604.02
2022-10-11T18:38:03.928Z,100607.41
2022-10-11T18:40:51.623Z,100605.29
2022-10-11T18:43:39.689Z,100604.25
2022-10-11T18:46:28.737Z,100603.94
2022-10-11T18:49:16.754Z,100600.52
2022-10-11T18:52:04.326Z,100599.05
2022-10-11T18:54:52.412Z,100596.33
2022-10-11T18:57:40.764Z,100597.51
2022-10-11T19:00:40.680Z,100600.48
2022-10-11T19:03:32.714Z,100601.09
2022-10-11T19:06:38.564Z,100601.14
2022-10-11T19:09:26.747Z,100602.39
2022-10-11T19:12:15.782Z,100605.74
2022-10-11T19:15:03.830Z,100604.55
2022-10-11T19:17:51.718Z,100602.65
2022-10-11T19:20:39.520Z,100606.60
2022-10-11T19:23:27.669Z,100605.01
2022-10-11T19:26:32.707Z,100608.31
2022-10-11T19:29:26.770Z,100605.82
2022-10-11T19:32:14.989Z,100602.79
2022-10-11T19:35:02.977Z,100605.95
2022-10-11T19:37:50.964Z,100610.99
2022-10-11T19:40:38.649Z,100611.62
2022-10-11T19:43:26.315Z,100612.12
2022-10-11T19:46:38.080Z,100614.14
2022-10-11T19:49:26.242Z,100609.15
2022-10-11T19:52:14.275Z,100610.16
2022-10-11T19:55:02.116Z,100612.50
2022-10-11T19:57:49.933Z,100616.20
2022-10-11T20:00:37.543Z,100615.36
2022-10-11T20:03:25.597Z,100619.02
2022-10-11T20:06:15.088Z,100622.17
2022-10-11T20:09:29.547Z,100624.45
2022-10-11T20:12:17.873Z,100621.38
2022-10-11T20:15:06.607Z,100618.89
2022-10-11T20:17:54.542Z,100622.33
2022-10-11T20:20:53.228Z,100624.89
2022-10-11T20:23:44.544Z,100623.93
2022-10-11T20:26:33.362Z,100624.38
2022-10-11T20:29:21.079Z,100622.66
2022-10-11T20:32:08.755Z,100624.54
2022-10-11T20:34:56.520Z,100625.77
2022-10-11T20:37:44.913Z,100625.52
2022-10-11T20:40:40.730Z,100626.89
2022-10-11T20:43:28.363Z,100630.70
2022-10-11T20:46:19.924Z,100627.54
2022-10-11T20:49:11.345Z,100629.70
2022-10-11T20:51:59.245Z,100628.38
2022-10-11T20:54:46.914Z,100633.00
2022-10-11T20:57:34.786Z,100630.95
2022-10-11T21:00:23.282Z,100623.88
2022-10-11T21:03:11.333Z,100625.47
2022-10-11T21:06:01.763Z,100622.79
2022-10-11T21:08:49.746Z,100626.78
2022-10-11T21:11:37.738Z,100623.38
2022-10-11T21:14:25.381Z,100626.92
2022-10-11T21:17:13.063Z,100626.48
2022-10-11T21:20:03.667Z,100627.09
2022-10-11T21:22:51.296Z,100627.04
2022-10-11T21:25:40.841Z,100628.39
2022-10-11T21:28:29.209Z,100631.73
2022-10-11T21:31:20.514Z,100634.19
2022-10-11T21:34:07.948Z,100632.00
2022-10-11T21:36:55.906Z,100637.80
2022-10-11T21:39:43.642Z,100637.13
2022-10-11T21:42:31.542Z,100635.67
2022-10-11T21:45:20.643Z,100630.98
2022-10-11T21:48:11.922Z,100634.60
2022-10-11T21:51:32.455Z,100638.55
2022-10-11T21:54:22.679Z,100638.02
2022-10-11T21:57:10.495Z,100640.09
2022-10-11T21:59:58.416Z,100642.85
2022-10-11T22:02:45.860Z,100650.60
2022-10-11T22:05:33.542Z,100652.90
2022-10-11T22:08:21.310Z,100650.54
2022-10-11T22:11:10.988Z,100649.55
2022-10-11T22:13:58.839Z,100647.14
2022-10-11T22:16:46.581Z,100649.02
2022-10-11T22:19:34.587Z,100644.96
2022-10-11T22:22:22.383Z,100643.06
2022-10-11T22:25:10.352Z,100647.97
2022-10-11T22:27:58.227Z,100647.77
2022-10-11T22:30:46.016Z,100645.75
2022-10-11T22:33:34.964Z,100651.33
2022-10-11T22:36:24.588Z,100650.39
2022-10-11T22:39:12.180Z,100654.59
2022-10-11T22:41:59.990Z,100655.73
2022-10-11T22:44:49.642Z,100655.16
2022-10-11T22:47:37.909Z,100656.02
2022-10-11T22:50:25.782Z,100655.09
2022-10-11T22:53:14.743Z,100651.42
2022-10-11T22:56:02.485Z,100653.71
2022-10-11T22:58:50.479Z,100648.12
2022-10-11T23:01:38.407Z,100654.11
2022-10-11T23:04:26.556Z,100655.52
2022-10-11T23:07:14.230Z,100661.66
2022-10-11T23:10:02.097Z,100662.34
2022-10-11T23:12:49.903Z,100658.11
2022-10-11T23:15:41.149Z,100663.55
2022-10-11T23:18:28.770Z,100662.19
2022-10-11T23:21:16.638Z,100663.23
2022-10-11T23:24:05.519Z,100661.27
2022-10-11T23:26:57.079Z,100664.24
2022-10-11T23:29:50.411Z,100664.05
2022-10-11T23:32:40.069Z,100660.41
2022-10-11T23:35:27.690Z,100658.55
2022-10-11T23:38:15.554Z,100660.55
2022-10-11T23:41:03.598Z,100658.70
2022-10-11T23:43:51.985Z,100659.13
2022-10-11T23:46:39.933Z,100660.94
2022-10-11T23:49:30.299Z,100662.79
2022-10-11T23:52:18.167Z,100662.33
2022-10-11T23:55:06.208Z,100663.80
2022-10-11T23:57:54.021Z,100661.67
